createdAt,value
2019-05-30T00:00:19.592Z,97810.48
2019-05-30T00:02:50.728Z,97818.56
2019-05-30T00:05:23.271Z,97814.66
2019-05-30T00:07:56.058Z,97814.63
2019-05-30T00:10:29.490Z,97808.72
2019-05-30T00:13:05.024Z,97816.20
2019-05-30T00:15:36.968Z,97813.44
2019-05-30T00:18:10.339Z,97821.59
2019-05-30T00:20:43.022Z,97816.78
2019-05-30T00:23:17.853Z,97817.41
2019-05-30T00:25:55.145Z,97815.51
2019-05-30T00:28:31.880Z,97815.21
2019-05-30T00:31:08.626Z,97821.59
2019-05-30T00:33:40.616Z,97822.45
2019-05-30T00:36:12.043Z,97825.83
2019-05-30T01:03:03.545Z,97839.45
2019-05-30T01:05:36.142Z,97837.17
2019-05-30T01:08:08.946Z,97838.27
2019-05-30T01:10:40.045Z,97833.72
2019-05-30T01:13:16.623Z,97826.55
2019-05-30T01:15:49.370Z,97828.54
2019-05-30T01:18:21.897Z,97826.23
2019-05-30T01:21:05.410Z,97824.20
2019-05-30T01:23:39.140Z,97824.66
2019-05-30T01:26:13.579Z,97821.64
2019-05-30T01:28:48.410Z,97825.55
2019-05-30T01:31:25.145Z,97829.83
2019-05-30T01:33:57.486Z,97830.74
2019-05-30T01:36:28.985Z,97828.88
2019-05-30T01:39:01.791Z,97832.22
2019-05-30T01:41:37.716Z,97826.93
2019-05-30T01:44:18.166Z,97821.78
2019-05-30T01:46:50.943Z,97818.95
2019-05-30T01:49:25.614Z,97819.82
2019-05-30T01:52:02.414Z,97812.07
2019-05-30T01:54:35.042Z,97813.00
2019-05-30T01:57:08.746Z,97816.08
2019-05-30T01:59:44.834Z,97810.92
2019-05-30T02:02:15.201Z,97814.56
2019-05-30T02:04:46.458Z,97811.95
2019-05-30T02:07:17.416Z,97811.57
2019-05-30T02:09:48.907Z,97811.78
2019-05-30T02:12:19.907Z,97819.03
2019-05-30T02:14:50.545Z,97818.46
2019-05-30T02:17:21.209Z,97822.28
2019-05-30T02:20:01.835Z,97823.24
2019-05-30T02:22:33.441Z,97820.11
2019-05-30T02:25:06.234Z,97817.02
2019-05-30T02:27:40.906Z,97820.72
2019-05-30T02:30:14.839Z,97819.91
2019-05-30T02:32:44.710Z,97827.18
2019-05-30T02:35:16.579Z,97825.85
2019-05-30T02:37:48.109Z,97823.05
2019-05-30T02:40:19.238Z,97825.28
2019-05-30T02:42:50.155Z,97824.30
2019-05-30T02:45:21.562Z,97828.51
2019-05-30T02:47:52.487Z,97830.80
2019-05-30T02:50:23.336Z,97835.94
2019-05-30T02:52:54.956Z,97834.30
2019-05-30T02:55:25.600Z,97834.97
2019-05-30T02:58:03.550Z,97833.65
2019-05-30T03:00:36.847Z,97835.46
2019-05-30T03:03:09.797Z,97833.03
2019-05-30T03:05:40.023Z,97838.19
2019-05-30T03:08:14.301Z,97835.48
2019-05-30T03:10:44.562Z,97840.75
2019-05-30T03:13:16.203Z,97842.06
2019-05-30T03:15:47.026Z,97838.63
2019-05-30T03:18:18.097Z,97836.14
2019-05-30T03:20:49.351Z,97837.14
2019-05-30T03:23:20.368Z,97839.00
2019-05-30T03:25:51.351Z,97843.27
2019-05-30T03:28:22.777Z,97845.27
2019-05-30T03:30:53.842Z,97850.23
2019-05-30T03:33:39.323Z,97853.08
2019-05-30T03:35:58.372Z,97852.78
2019-05-30T03:38:29.726Z,97854.29
2019-05-30T03:41:00.728Z,97853.38
2019-05-30T03:43:44.855Z,97861.42
2019-05-30T03:46:21.422Z,97858.67
2019-05-30T03:48:55.232Z,97862.50
2019-05-30T03:51:27.232Z,97865.66
2019-05-30T03:54:04.818Z,97868.61
2019-05-30T03:56:42.028Z,97872.06
2019-05-30T03:59:38.990Z,97878.00
2019-05-30T04:02:56.639Z,97884.07
2019-05-30T04:05:24.863Z,97881.06
2019-05-30T04:07:57.815Z,97879.88
2019-05-30T04:10:35.653Z,97879.89
2019-05-30T04:13:45.505Z,97888.58
2019-05-30T04:16:17.166Z,97893.40
2019-05-30T04:18:48.611Z,97887.47
2019-05-30T04:21:21.644Z,97889.44
2019-05-30T04:23:52.943Z,97889.53
2019-05-30T04:26:24.191Z,97885.63
2019-05-30T04:28:55.116Z,97888.63
2019-05-30T04:31:25.932Z,97890.14
2019-05-30T04:33:56.765Z,97889.52
2019-05-30T04:36:27.431Z,97885.70
2019-05-30T04:38:58.781Z,97890.22
2019-05-30T04:41:29.789Z,97894.74
2019-05-30T04:44:00.771Z,97895.28
2019-05-30T04:46:35.794Z,97901.28
2019-05-30T04:49:07.505Z,97903.66
2019-05-30T04:51:38.180Z,97907.63
2019-05-30T04:54:10.377Z,97909.19
2019-05-30T04:56:42.143Z,97915.72
2019-05-30T04:59:15.082Z,97911.08
2019-05-30T05:01:46.073Z,97910.09
2019-05-30T05:04:17.762Z,97908.31
2019-05-30T05:06:49.802Z,97912.61
2019-05-30T05:09:22.469Z,97920.22
2019-05-30T05:12:00.003Z,97913.67
2019-05-30T05:14:31.762Z,97915.17
2019-05-30T05:17:03.287Z,97916.03
2019-05-30T05:19:35.283Z,97919.86
2019-05-30T05:22:06.030Z,97918.66
2019-05-30T05:24:37.140Z,97922.63
2019-05-30T05:27:20.293Z,97922.83
2019-05-30T05:29:52.010Z,97925.81
2019-05-30T05:32:22.753Z,97926.72
2019-05-30T05:34:53.078Z,97924.85
2019-05-30T05:37:25.323Z,97923.25
2019-05-30T05:39:56.099Z,97924.02
2019-05-30T05:42:29.901Z,97934.25
2019-05-30T05:44:59.842Z,97934.87
2019-05-30T05:47:30.877Z,97938.47
2019-05-30T05:50:01.924Z,97940.02
2019-05-30T05:52:33.008Z,97946.40
2019-05-30T05:55:03.685Z,97947.50
2019-05-30T05:57:34.867Z,97949.55
2019-05-30T06:00:09.159Z,97951.97
2019-05-30T06:02:40.197Z,97958.31
2019-05-30T06:05:11.848Z,97963.05
2019-05-30T06:07:43.203Z,97969.23
2019-05-30T06:10:19.467Z,97968.59
2019-05-30T06:12:51.366Z,97974.13
2019-05-30T06:15:22.952Z,97971.53
2019-05-30T06:17:54.002Z,97980.91
2019-05-30T06:20:25.372Z,97985.55
2019-05-30T06:22:56.748Z,97973.32
2019-05-30T06:25:32.466Z,97980.81
2019-05-30T06:28:00.436Z,97980.83
2019-05-30T06:30:35.349Z,97984.56
2019-05-30T06:33:08.443Z,97980.58
2019-05-30T06:35:41.415Z,97984.53
2019-05-30T06:38:19.143Z,97985.63
2019-05-30T06:40:50.367Z,97987.80
2019-05-30T06:43:21.940Z,97988.30
2019-05-30T06:45:53.583Z,97989.83
2019-05-30T06:48:26.948Z,97988.78
2019-05-30T06:50:58.911Z,97982.41
2019-05-30T06:53:32.057Z,97983.08
2019-05-30T06:56:03.451Z,97978.12
2019-05-30T06:58:48.107Z,97976.63
2019-05-30T07:01:11.902Z,97981.41
2019-05-30T07:06:22.946Z,97985.44
2019-05-30T07:08:56.795Z,97990.75
2019-05-30T07:11:29.297Z,97992.20
2019-05-30T07:14:05.913Z,97995.52
2019-05-30T07:16:41.220Z,97999.72
2019-05-30T07:19:12.214Z,98005.19
2019-05-30T07:21:43.680Z,98002.60
2019-05-30T07:24:15.432Z,98006.88
2019-05-30T07:26:46.531Z,98009.38
2019-05-30T07:29:17.512Z,98011.53
2019-05-30T07:31:49.310Z,98010.91
2019-05-30T07:34:21.363Z,98010.72
2019-05-30T07:36:53.326Z,98020.44
2019-05-30T07:39:27.136Z,98012.60
2019-05-30T07:42:06.292Z,98006.55
2019-05-30T07:44:30.860Z,98006.38
2019-05-30T07:47:01.993Z,98008.80
2019-05-30T07:49:34.622Z,98007.89
2019-05-30T07:52:06.062Z,98000.77
2019-05-30T07:54:39.185Z,98004.17
2019-05-30T07:57:10.670Z,98001.94
2019-05-30T07:59:42.071Z,98004.13
2019-05-30T08:02:13.071Z,98004.45
2019-05-30T08:04:47.009Z,98006.84
2019-05-30T08:07:17.059Z,98010.36
2019-05-30T08:09:47.677Z,97998.83
2019-05-30T08:12:19.384Z,98005.93
2019-05-30T08:14:56.341Z,98004.20
2019-05-30T08:17:27.483Z,97997.54
2019-05-30T08:19:58.519Z,98004.32
2019-05-30T08:22:31.953Z,98000.48
2019-05-30T08:25:03.448Z,98003.25
2019-05-30T08:27:38.703Z,97998.87
2019-05-30T08:30:10.905Z,98002.81
2019-05-30T08:32:42.649Z,97997.36
2019-05-30T08:35:16.559Z,97995.09
2019-05-30T08:37:49.224Z,97992.09
2019-05-30T08:40:20.874Z,97994.75
2019-05-30T08:42:52.133Z,98001.89
2019-05-30T08:45:24.051Z,97997.34
2019-05-30T08:47:55.526Z,97999.50
2019-05-30T08:50:26.472Z,97994.64
2019-05-30T08:53:00.151Z,97987.86
2019-05-30T08:55:32.303Z,97990.33
2019-05-30T08:58:03.746Z,97986.09
2019-05-30T09:00:35.155Z,97987.95
2019-05-30T09:03:07.323Z,97985.38
2019-05-30T09:05:58.222Z,97986.63
2019-05-30T09:08:13.893Z,97981.08
2019-05-30T09:10:46.931Z,97980.08
2019-05-30T09:13:18.193Z,97981.94
2019-05-30T09:15:55.807Z,97973.37
2019-05-30T09:18:27.129Z,97971.58
2019-05-30T09:20:59.671Z,97968.89
2019-05-30T09:23:30.660Z,97973.95
2019-05-30T09:26:02.459Z,97976.13
2019-05-30T09:28:34.185Z,97968.92
2019-05-30T09:31:05.378Z,97972.97
2019-05-30T09:33:38.094Z,97963.70
2019-05-30T09:36:13.248Z,97965.73
2019-05-30T09:38:49.745Z,97969.77
2019-05-30T09:41:21.175Z,97963.63
2019-05-30T09:43:52.640Z,97963.44
2019-05-30T09:46:29.811Z,97962.34
2019-05-30T09:49:00.441Z,97962.48
2019-05-30T09:51:31.815Z,97961.28
2019-05-30T09:54:02.959Z,97954.20
2019-05-30T09:56:34.386Z,97953.20
2019-05-30T09:59:05.160Z,97953.09
2019-05-30T10:01:35.805Z,97957.69
2019-05-30T10:04:06.854Z,97950.72
2019-05-30T10:06:39.933Z,97951.11
2019-05-30T10:09:11.324Z,97948.92
2019-05-30T10:11:42.781Z,97939.78
2019-05-30T10:14:14.176Z,97942.16
2019-05-30T10:16:53.372Z,97934.32
2019-05-30T10:19:22.298Z,97936.86
2019-05-30T10:21:53.862Z,97938.52
2019-05-30T10:24:25.470Z,97942.59
2019-05-30T10:26:57.382Z,97936.95
2019-05-30T10:29:29.608Z,97940.05
2019-05-30T10:32:06.669Z,97939.34
2019-05-30T10:34:38.941Z,97932.34
2019-05-30T10:37:10.717Z,97935.97
2019-05-30T10:39:41.377Z,97934.96
2019-05-30T10:42:13.126Z,97930.27
2019-05-30T10:44:43.735Z,97924.89
2019-05-30T10:47:17.698Z,97915.10
2019-05-30T10:49:55.518Z,97917.69
2019-05-30T10:52:28.373Z,97921.94
2019-05-30T10:54:58.721Z,97919.81
2019-05-30T10:57:39.853Z,97918.73
2019-05-30T11:00:12.780Z,97913.05
2019-05-30T11:02:43.852Z,97911.85
2019-05-30T11:05:18.384Z,97909.70
2019-05-30T11:08:06.101Z,97904.88
2019-05-30T11:10:48.536Z,97900.31
2019-05-30T11:13:20.924Z,97904.91
2019-05-30T11:15:51.774Z,97898.63
2019-05-30T11:18:26.831Z,97903.05
2019-05-30T11:21:12.906Z,97902.33
2019-05-30T11:23:44.313Z,97894.61
2019-05-30T11:26:15.043Z,97892.16
2019-05-30T11:28:45.800Z,97887.73
2019-05-30T11:31:26.641Z,97890.77
2019-05-30T11:33:55.299Z,97891.52
2019-05-30T11:36:26.563Z,97888.59
2019-05-30T11:39:00.172Z,97882.36
2019-05-30T11:42:11.654Z,97881.57
2019-05-30T11:44:42.236Z,97881.87
2019-05-30T11:47:13.658Z,97869.44
2019-05-30T11:49:44.379Z,97875.34
2019-05-30T11:52:15.936Z,97872.72
2019-05-30T11:54:52.022Z,97861.32
2019-05-30T11:57:22.742Z,97863.33
2019-05-30T11:59:54.248Z,97861.32
2019-05-30T12:02:25.229Z,97859.21
2019-05-30T12:04:56.578Z,97859.63
2019-05-30T12:07:36.485Z,97858.03
2019-05-30T12:10:01.067Z,97844.36
2019-05-30T12:12:32.707Z,97852.34
2019-05-30T12:15:04.047Z,97846.92
2019-05-30T12:17:36.800Z,97843.37
2019-05-30T12:20:09.987Z,97843.61
2019-05-30T12:22:52.015Z,97838.54
2019-05-30T12:25:24.087Z,97839.34
2019-05-30T12:27:55.947Z,97837.91
2019-05-30T12:30:28.062Z,97840.30
2019-05-30T12:33:00.680Z,97836.96
2019-05-30T12:35:34.386Z,97842.91
2019-05-30T12:38:09.315Z,97834.30
2019-05-30T12:40:40.991Z,97836.77
2019-05-30T12:43:12.455Z,97830.08
2019-05-30T12:45:43.071Z,97825.39
2019-05-30T12:48:14.084Z,97825.80
2019-05-30T12:50:45.109Z,97827.05
2019-05-30T12:53:15.739Z,97822.98
2019-05-30T12:55:47.020Z,97823.16
2019-05-30T12:58:18.014Z,97817.61
2019-05-30T13:00:56.655Z,97829.81
2019-05-30T13:03:27.328Z,97823.45
2019-05-30T13:05:59.147Z,97823.50
2019-05-30T13:08:29.969Z,97827.83
2019-05-30T13:11:01.760Z,97819.77
2019-05-30T13:13:33.313Z,97819.78
2019-05-30T13:16:07.617Z,97819.80
2019-05-30T13:18:38.032Z,97815.97
2019-05-30T13:21:09.010Z,97817.03
2019-05-30T13:23:40.169Z,97815.61
2019-05-30T13:26:11.330Z,97815.02
2019-05-30T13:28:42.699Z,97811.09
2019-05-30T13:31:13.737Z,97812.89
2019-05-30T13:33:45.305Z,97811.94
2019-05-30T13:36:17.019Z,97808.56
2019-05-30T13:38:48.246Z,97813.73
2019-05-30T13:41:19.426Z,97808.55
2019-05-30T13:43:50.770Z,97808.17
2019-05-30T13:46:22.137Z,97814.08
2019-05-30T13:48:53.184Z,97813.30
2019-05-30T13:51:24.257Z,97816.54
2019-05-30T13:53:55.259Z,97812.94
2019-05-30T13:56:25.888Z,97807.38
2019-05-30T13:58:57.235Z,97810.05
2019-05-30T14:01:28.609Z,97814.20
2019-05-30T14:04:00.026Z,97817.77
2019-05-30T14:06:35.271Z,97808.72
2019-05-30T14:09:10.471Z,97806.50
2019-05-30T14:11:43.116Z,97808.68
2019-05-30T14:14:15.804Z,97806.59
2019-05-30T14:16:47.839Z,97801.25
2019-05-30T14:19:53.549Z,97797.61
2019-05-30T14:22:24.823Z,97806.95
2019-05-30T14:24:57.100Z,97808.31
2019-05-30T14:27:28.975Z,97810.95
2019-05-30T14:30:00.011Z,97805.67
2019-05-30T14:32:32.387Z,97805.41
2019-05-30T14:35:04.120Z,97806.87
2019-05-30T14:37:35.899Z,97813.20
2019-05-30T14:40:08.707Z,97801.38
2019-05-30T14:42:39.752Z,97810.34
2019-05-30T14:45:10.841Z,97808.55
2019-05-30T14:47:42.154Z,97814.97
2019-05-30T14:50:13.686Z,97805.56
2019-05-30T14:52:44.392Z,97809.38
2019-05-30T14:55:15.441Z,97805.59
2019-05-30T14:57:46.478Z,97804.98
2019-05-30T15:00:18.388Z,97808.48
2019-05-30T15:02:49.030Z,97814.84
2019-05-30T15:05:19.464Z,97808.00
2019-05-30T15:07:50.126Z,97813.23
2019-05-30T15:10:21.324Z,97809.31
2019-05-30T15:12:52.676Z,97805.69
2019-05-30T15:15:23.487Z,97807.56
2019-05-30T15:17:54.189Z,97813.22
2019-05-30T15:20:27.257Z,97807.91
2019-05-30T15:22:58.991Z,97821.20
2019-05-30T15:25:30.352Z,97814.67
2019-05-30T15:28:01.351Z,97815.68
2019-05-30T15:30:32.427Z,97811.60
2019-05-30T15:33:03.837Z,97813.15
2019-05-30T15:35:34.796Z,97805.72
2019-05-30T15:38:06.636Z,97806.31
2019-05-30T15:40:38.236Z,97810.31
2019-05-30T15:43:09.352Z,97803.99
2019-05-30T15:45:40.346Z,97805.50
2019-05-30T15:48:12.309Z,97810.94
2019-05-30T15:50:42.671Z,97809.53
2019-05-30T15:53:15.110Z,97808.39
2019-05-30T15:55:47.188Z,97806.19
2019-05-30T15:58:20.784Z,97809.45
2019-05-30T16:00:52.087Z,97801.81
2019-05-30T16:03:23.155Z,97803.63
2019-05-30T16:05:54.444Z,97805.23
2019-05-30T16:08:25.941Z,97801.53
2019-05-30T16:10:57.534Z,97805.42
2019-05-30T16:13:29.583Z,97802.02
2019-05-30T16:16:00.636Z,97797.64
2019-05-30T16:18:31.964Z,97792.30
2019-05-30T16:21:15.595Z,97791.34
2019-05-30T16:23:46.572Z,97797.27
2019-05-30T16:26:17.642Z,97792.83
2019-05-30T16:28:48.709Z,97794.46
2019-05-30T16:31:19.886Z,97791.60
2019-05-30T16:33:51.623Z,97794.03
2019-05-30T16:36:22.654Z,97796.83
2019-05-30T16:38:53.641Z,97787.41
2019-05-30T16:41:24.890Z,97788.59
2019-05-30T16:43:56.211Z,97794.29
2019-05-30T16:46:27.405Z,97794.49
2019-05-30T16:48:58.777Z,97799.39
2019-05-30T16:51:29.836Z,97791.72
2019-05-30T16:54:00.808Z,97794.59
2019-05-30T16:56:34.200Z,97798.35
2019-05-30T16:59:18.594Z,97795.73
2019-05-30T17:01:57.958Z,97791.31
2019-05-30T17:04:30.383Z,97795.88
2019-05-30T17:07:01.764Z,97800.31
2019-05-30T17:09:33.845Z,97798.86
2019-05-30T17:12:04.805Z,97796.17
2019-05-30T17:14:45.771Z,97798.32
2019-05-30T17:17:18.095Z,97793.13
2019-05-30T17:19:53.658Z,97794.31
2019-05-30T17:22:25.912Z,97802.22
2019-05-30T17:25:04.044Z,97801.56
2019-05-30T17:27:35.879Z,97796.92
2019-05-30T17:30:07.311Z,97800.86
2019-05-30T17:32:38.612Z,97802.80
2019-05-30T17:35:10.188Z,97801.39
2019-05-30T17:37:41.126Z,97807.78
2019-05-30T17:40:14.825Z,97810.17
2019-05-30T17:42:46.165Z,97817.97
2019-05-30T17:45:19.005Z,97817.36
2019-05-30T17:47:59.513Z,97814.50
2019-05-30T17:50:23.754Z,97809.31
2019-05-30T17:52:58.283Z,97813.12
2019-05-30T17:55:28.621Z,97811.69
2019-05-30T17:57:59.290Z,97814.56
2019-05-30T18:00:30.644Z,97819.09
2019-05-30T18:03:02.964Z,97819.08
2019-05-30T18:05:37.080Z,97823.88
2019-05-30T18:08:06.995Z,97830.00
2019-05-30T18:10:37.650Z,97829.16
2019-05-30T18:13:09.075Z,97828.63
2019-05-30T18:15:39.721Z,97825.80
2019-05-30T18:18:10.667Z,97829.05
2019-05-30T18:20:48.727Z,97833.94
2019-05-30T18:23:19.482Z,97836.81
2019-05-30T18:25:50.430Z,97835.77
2019-05-30T18:28:21.785Z,97830.39
2019-05-30T18:30:52.921Z,97825.00
2019-05-30T18:33:33.688Z,97833.47
2019-05-30T18:36:04.743Z,97835.34
2019-05-30T18:38:35.538Z,97844.05
2019-05-30T18:41:11.559Z,97846.93
2019-05-30T18:43:38.947Z,97850.34
2019-05-30T18:46:09.262Z,97851.88
2019-05-30T18:48:40.570Z,97855.60
2019-05-30T18:51:12.243Z,97849.25
2019-05-30T18:53:44.383Z,97858.50
2019-05-30T18:56:15.827Z,97859.73
2019-05-30T18:58:46.713Z,97857.48
2019-05-30T19:01:18.374Z,97856.38
2019-05-30T19:03:49.187Z,97852.06
2019-05-30T19:06:20.675Z,97863.56
2019-05-30T19:08:52.090Z,97862.99
2019-05-30T19:11:28.198Z,97869.50
2019-05-30T19:13:56.801Z,97871.16
2019-05-30T19:16:28.520Z,97870.52
2019-05-30T19:19:00.194Z,97874.08
2019-05-30T19:21:32.039Z,97870.34
2019-05-30T19:24:03.429Z,97882.86
2019-05-30T19:26:36.741Z,97880.88
2019-05-30T19:29:08.030Z,97880.46
2019-05-30T19:31:39.413Z,97881.84
2019-05-30T19:34:14.298Z,97885.41
2019-05-30T19:36:45.414Z,97882.41
2019-05-30T19:39:16.494Z,97892.38
2019-05-30T19:41:56.901Z,97895.88
2019-05-30T19:44:21.349Z,97891.88
2019-05-30T19:47:00.028Z,97897.16
2019-05-30T19:49:32.394Z,97901.84
2019-05-30T19:52:03.634Z,97906.48
2019-05-30T19:54:35.231Z,97904.37
2019-05-30T19:57:06.375Z,97904.52
2019-05-30T19:59:39.877Z,97902.41
2019-05-30T20:02:12.203Z,97914.34
2019-05-30T20:04:46.134Z,97911.16
2019-05-30T20:07:19.411Z,97919.01
2019-05-30T20:10:01.271Z,97918.09
2019-05-30T20:12:30.612Z,97917.86
2019-05-30T20:15:01.737Z,97916.88
2019-05-30T20:17:33.656Z,97922.69
2019-05-30T20:20:06.282Z,97928.51
2019-05-30T20:22:56.125Z,97929.63
2019-05-30T20:25:29.258Z,97930.31
2019-05-30T20:28:03.059Z,97935.55
2019-05-30T20:30:35.033Z,97933.56
2019-05-30T20:33:07.272Z,97932.12
2019-05-30T20:35:40.507Z,97933.41
2019-05-30T20:38:13.874Z,97931.43
2019-05-30T20:40:45.003Z,97928.37
2019-05-30T20:43:16.750Z,97928.64
2019-05-30T20:45:49.973Z,97935.84
2019-05-30T20:48:20.969Z,97934.25
2019-05-30T20:50:52.229Z,97929.00
2019-05-30T20:53:31.964Z,97934.42
2019-05-30T20:56:06.472Z,97940.01
2019-05-30T20:58:37.865Z,97934.52
2019-05-30T21:01:08.714Z,97942.47
2019-05-30T21:03:40.303Z,97940.80
2019-05-30T21:06:12.024Z,97946.78
2019-05-30T21:08:59.080Z,97946.22
2019-05-30T21:11:31.621Z,97950.36
2019-05-30T21:14:03.878Z,97951.05
2019-05-30T21:16:37.634Z,97944.67
2019-05-30T21:19:08.869Z,97944.07
2019-05-30T21:21:44.271Z,97946.17
2019-05-30T21:24:24.902Z,97947.92
2019-05-30T21:26:56.042Z,97952.09
2019-05-30T21:29:29.308Z,97949.89
2019-05-30T21:32:05.101Z,97955.26
2019-05-30T21:34:35.600Z,97954.70
2019-05-30T21:37:07.889Z,97951.05
2019-05-30T21:39:40.015Z,97943.03
2019-05-30T21:42:11.006Z,97947.11
2019-05-30T21:44:43.375Z,97947.97
2019-05-30T21:47:14.319Z,97953.22
2019-05-30T21:49:54.792Z,97956.23
2019-05-30T21:52:46.368Z,97961.51
2019-05-30T21:55:50.761Z,97958.59
2019-05-30T21:58:23.874Z,97957.98
2019-05-30T22:01:32.433Z,97951.98
2019-05-30T22:04:04.966Z,97954.09
2019-05-30T22:06:38.922Z,97954.02
2019-05-30T22:09:15.644Z,97955.78
2019-05-30T22:11:47.790Z,97955.98
2019-05-30T22:14:28.514Z,97953.84
2019-05-30T22:17:02.927Z,97952.42
2019-05-30T22:19:38.286Z,97951.35
2019-05-30T22:22:12.977Z,97953.72
2019-05-30T22:24:46.820Z,97952.50
2019-05-30T22:27:17.941Z,97946.84
2019-05-30T22:30:01.863Z,97943.50
2019-05-30T22:32:44.641Z,97948.47
2019-05-30T22:35:19.321Z,97944.67
2019-05-30T22:37:53.123Z,97946.03
2019-05-30T22:40:33.894Z,97945.55
2019-05-30T22:43:24.813Z,97943.44
2019-05-30T22:45:50.312Z,97942.09
2019-05-30T22:48:22.594Z,97957.64
2019-05-30T22:50:57.096Z,97952.48
2019-05-30T22:53:34.464Z,97956.88
2019-05-30T22:56:13.694Z,97954.16
2019-05-30T22:58:57.267Z,97951.83
2019-05-30T23:01:30.527Z,97948.70
2019-05-30T23:04:02.246Z,97950.27
2019-05-30T23:06:33.490Z,97957.31
2019-05-30T23:09:05.877Z,97957.34
2019-05-30T23:11:36.985Z,97956.47
2019-05-30T23:14:07.971Z,97958.06
2019-05-30T23:16:38.666Z,97953.81
2019-05-30T23:19:10.504Z,97955.31
2019-05-30T23:21:41.811Z,97949.44
2019-05-30T23:24:14.773Z,97944.80
2019-05-30T23:26:47.355Z,97943.25
2019-05-30T23:29:23.303Z,97938.77
2019-05-30T23:31:54.354Z,97941.36
2019-05-30T23:34:27.175Z,97933.48
2019-05-30T23:37:02.200Z,97933.66
2019-05-30T23:39:36.326Z,97934.30
2019-05-30T23:42:07.033Z,97937.30
2019-05-30T23:44:38.112Z,97938.86
2019-05-30T23:47:11.754Z,97934.25
2019-05-30T23:49:44.839Z,97936.19
2019-05-30T23:52:18.230Z,97936.59
2019-05-30T23:54:50.009Z,97931.20
2019-05-30T23:57:20.801Z,97933.22
2019-05-30T23:59:52.715Z,97935.42
